• Join FlightAware (Why Join?)
  • Login
  • US Flag 
02:06AM EDT


 

Airport Tracker/Info


-or-


 

Live Flight TrackerFlight Track Log ✈ SWA4321 ✈ 27-Dec-2012 ✈ KBWI - KMHT

Flight Track Log - Related Links

Times and Time Zones

All times are in EST time to prevent confusion due to time zone crossing. See the SWA4321 flight status page for this flight to view local times or setup timezone preferences in your user account.

Time Position Orientation Groundspeed Altitude Reporting Facility
EST Latitude Longitude Course Direction KTS MPH feet Rate Location/Type
09:51PM 39.1267 -76.7447 280° West 141 162 35,000  Level Washington Center
09:52PM 39.1192 -76.6431 95° East 116 133 7,200 -12,720 Descending Washington Center
09:53PM 39.1286 -76.5333 84° East 217 250 9,800 2,280 Climbing Washington Center
09:54PM 39.1400 -76.4078 83° East 264 304 11,800 2,220 Climbing Washington Center
09:55PM 39.1599 -76.5022 280° West  Level FlightAware Approximate
09:56PM 39.1622 -76.1378 84° East 385 443 16,600  Level Washington Center
09:57PM 39.1794 -75.9906 81° East 407 468 18,900 2,100 Climbing Washington Center
09:58PM 39.2172 -75.8542 70° East 413 475 20,800 1,920 Climbing Washington Center
09:59PM 39.2967 -75.7497 45° Northeast 388 447 22,800 1,800 Climbing Washington Center
10:00PM 39.3781 -75.6425 46° Northeast 400 460 24,500 1,560 Climbing Washington Center
10:01PM 39.4594 -75.5406 44° Northeast 400 460 26,000 1,320 Climbing Washington Center
10:02PM 39.5406 -75.4328 46° Northeast 407 468 27,200 1,140 Climbing Washington Center
10:03PM 39.6258 -75.3167 46° Northeast 418 481 28,400 1,020 Climbing Washington Center
10:04PM 39.7311 -75.1736 46° Northeast 443 510 29,500 1,020 Climbing New York Center
10:05PM 39.8169 -75.0492 48° Northeast 457 526 30,700 1,020 Climbing New York Center
10:06PM 39.9050 -74.9247 47° Northeast 462 532 31,600 1,020 Climbing New York Center
10:07PM 40.0283 -74.8561 23° Northeast 441 507 32,800 1,260 Climbing New York Center
10:08PM 40.1250 -74.8267 13° North 404 465 34,100 780 Climbing New York Center
10:10PM 40.3367 -74.7433 17° North 409 471 35,000 300 Climbing Boston Center
10:11PM 40.4481 -74.6981 17° North 415 478 35,000  Level Boston Center
10:12PM 40.5614 -74.6583 15° North 415 478 35,000  Level Boston Center
10:13PM 40.6725 -74.6156 16° North 415 478 35,000  Level Boston Center
10:14PM 40.7839 -74.5728 16° North 415 478 35,000  Level Boston Center
10:15PM 40.8950 -74.5297 16° North 415 478 35,000  Level Boston Center
10:16PM 40.9936 -74.4944 15° North 415 478 35,000  Level Boston Center
10:17PM 41.1050 -74.4511 16° North 415 478 35,000  Level Boston Center
10:18PM 41.2161 -74.4075 16° North 415 478 35,000  Level Boston Center
10:19PM 41.3314 -74.3669 15° North 420 483 35,000  Level Boston Center
10:20PM 41.4469 -74.3206 17° North 420 483 35,000  Level Boston Center
10:21PM 41.5664 -74.2742 16° North 425 489 35,000 -420 Level Boston Center
10:22PM 41.6661 -74.1658 39° Northeast 441 507 34,200 -960 Descending Boston Center
10:23PM 41.7472 -74.0372 50° Northeast 436 502 33,100 -1,080 Descending Boston Center
10:24PM 41.8219 -73.9136 51° Northeast 436 502 32,100 -960 Descending Boston Center
10:25PM 41.9006 -73.7872 50° Northeast 436 502 31,200 -900 Descending Boston Center
10:26PM 41.9792 -73.6578 51° Northeast 441 507 30,300 -1,080 Descending Boston Center
10:27PM 42.0597 -73.5278 50° Northeast 441 507 29,100 -1,740 Descending Boston Center
10:28PM 42.1444 -73.3808 52° Northeast 446 513 26,900 -2,040 Descending Boston Center
10:29PM 42.2056 -73.2864 49° Northeast 416 479 25,100 -1,860 Descending Boston Center
10:30PM 42.2772 -73.1669 51° Northeast 400 460 23,200 -2,040 Descending Boston Center
10:31PM 42.3592 -73.0244 52° Northeast 418 481 21,100 -2,100 Descending Boston Center
10:32PM 42.4308 -72.9014 52° Northeast 418 481 19,100 -1,080 Descending Boston Center
10:33PM 42.4894 -72.7781 57° Northeast 406 467 19,000 -60 Descending Boston Center
10:34PM 42.5419 -72.6403 63° Northeast 401 461 19,000 -60 Level Boston Center
10:35PM 42.5964 -72.5050 61° Northeast 401 461 18,900 -1,380 Descending Boston Center
10:36PM 42.6483 -72.3781 61° Northeast 395 455 16,300 -2,460 Descending Boston Center
10:37PM 42.6900 -72.2622 64° Northeast 383 441 14,000 -2,460 Descending Boston Center
10:38PM 42.7417 -72.1292 62° Northeast 365 420 11,400 -1,860 Descending Boston Center
10:39PM 42.7664 -72.0214 73° East 343 395 10,300 -1,440 Descending Boston Center
10:40PM 42.7764 -71.8969 84° East 306 352 8,600 -1,560 Descending Boston Center
10:41PM 42.7758 -71.7953 90° East 295 339 7,200 -1,620 Descending Boston Center
10:42PM 42.7689 -71.6792 95° East 284 327 5,400 -1,620 Descending Boston Center
10:43PM 42.7578 -71.5889 99° East 272 313 4,000 -1,200 Descending Boston Center
10:44PM 42.7464 -71.4844 98° East 254 292 3,000 -540 Descending Boston Center
10:45PM 42.7417 -71.4056 95° East 241 277 3,000 -240 Level Boston Center
10:46PM 42.7744 -71.3397 56° Northeast 193 222 2,600 -420 Descending Boston Center
10:47PM 42.8183 -71.3672 335° Northwest 128 147 2,200 -600 Descending Boston Center
10:48PM 42.8708 -71.3975 337° Northwest 175 201 1,500 -780 Descending Boston Center
10:49PM 42.9022 -71.4169 336° Northwest 154 177 700 -600 Descending Boston Center
10:50PM 42.9378 -71.4389 336° Northwest 144 166 400 4,140 Descending Boston Center
10:51PM 42.9756 -71.4583 339° North 144 166 9,000 4,260 Climbing Boston Center
10:52PM 43.0111 -71.4803 336° Northwest 144 166 9,000  Level Boston Center
10:54PM 42.9328 -71.4358 166° South  Level Estimated
11:01PM 42.9328 -71.4358 166° South  Level Estimated
11:02PM 42.9328 -71.4358 166° South  Level Estimated
11:03PM 42.9328 -71.4358 166° South  Level Estimated
11:04PM 42.9328 -71.4358 166° South  Level Estimated
11:05PM 42.9328 -71.4358 166° South  Level Estimated
11:06PM 42.9328 -71.4358 166° South  Level Estimated